Time;durP1;ratioP1;P1;durP2;ratioP2;P2;SDS_P1;SDS_P2;PMS_P1;PMS_P2;Temp;Humidity;BMP_temperature;BMP_pressure;BME280_temperature;BME280_humidity;BME280_pressure;Samples;Min_cycle;Max_cycle;Signal;HPM_P1;HPM_P2
2022/04/29 00:00:42;;;;;;;;;;;;;;;;;;4989028;28;19926;-58
2022/04/29 00:03:13;;;;;;;;;;;;;;;;;;4994071;28;19921;-57
2022/04/29 00:05:40;;;;;;;;;;;;;;;;;;4990353;28;19921;-61
2022/04/29 00:08:06;;;;;;;;;;;;;;;;;;4993151;28;19929;-60
2022/04/29 00:10:32;;;;;;;;;;;;;;;;;;4989220;28;19925;-57
2022/04/29 00:13:00;;;;;;;;;;;;;;;;;;4992769;28;19925;-58
2022/04/29 00:15:27;;;;;;;;;;;;;;;;;;4988120;28;19980;-57
2022/04/29 00:17:53;;;;;;;;;;;;;;;;;;4992592;28;19929;-57
2022/04/29 00:20:19;;;;;;;;;;;;;;;;;;4992296;28;19925;-57
2022/04/29 00:22:46;;;;;;;;;;;;;;;;;;4989199;28;19931;-57
2022/04/29 00:25:12;;;;;;;;;;;;;;;;;;4993227;28;19928;-57
2022/04/29 00:27:40;;;;;;;;;;;;;;;;;;4988462;28;19949;-57
2022/04/29 00:30:06;;;;;;;;;;;;;;;;;;4992431;28;19932;-57
2022/04/29 00:32:34;;;;;;;;;;;;;;;;;;4988041;28;19944;-57
2022/04/29 00:35:00;;;;;;;;;;;;;;;;;;4991590;28;19925;-58
2022/04/29 00:37:26;;;;;;;;;;;;;;;;;;4988348;28;20044;-58
2022/04/29 00:39:53;;;;;;;;;;;;;;;;;;4991867;28;19921;-57
2022/04/29 00:42:21;;;;;;;;;;;;;;;;;;4988053;28;19925;-57
2022/04/29 00:44:48;;;;;;;;;;;;;;;;;;4991929;28;19990;-57
2022/04/29 00:47:14;;;;;;;;;;;;;;;;;;4987685;28;19932;-57
2022/04/29 00:49:40;;;;;;;;;;;;;;;;;;4992006;28;19926;-58
2022/04/29 00:52:07;;;;;;;;;;;;;;;;;;4987149;28;19931;-58
2022/04/29 00:54:33;;;;;;;;;;;;;;;;;;4992099;28;20025;-57
2022/04/29 00:57:00;;;;;;;;;;;;;;;;;;4987088;28;19971;-55
2022/04/29 00:59:26;;;;;;;;;;;;;;;;;;4992039;28;19941;-59
2022/04/29 01:01:53;;;;;;;;;;;;;;;;;;4991806;28;19996;-57
2022/04/29 01:04:19;;;;;;;;;;;;;;;;;;4987612;28;19968;-57
2022/04/29 01:06:46;;;;;;;;;;;;;;;;;;4991782;28;19925;-57
2022/04/29 01:09:12;;;;;;;;;;;;;;;;;;4987592;28;20012;-58
2022/04/29 01:11:39;;;;;;;;;;;;;;;;;;5000369;28;19921;-57
2022/04/29 01:14:05;;;;;;;;;;;;;;;;;;4987560;28;19928;-57
2022/04/29 01:16:32;;;;;;;;;;;;;;;;;;4991804;28;19929;-58
2022/04/29 01:18:58;;;;;;;;;;;;;;;;;;4988966;28;19921;-58
2022/04/29 01:21:25;;;;;;;;;;;;;;;;;;4995100;28;19970;-57
2022/04/29 01:23:51;;;;;;;;;;;;;;;;;;4991087;28;19929;-57
2022/04/29 01:26:18;;;;;;;;;;;;;;;;;;4994348;28;19925;-57
2022/04/29 01:28:45;;;;;;;;;;;;;;;;;;4990317;28;19925;-57
2022/04/29 01:31:11;;;;;;;;;;;;;;;;;;4995556;28;19971;-57
2022/04/29 01:33:37;;;;;;;;;;;;;;;;;;4991608;28;19930;-57
2022/04/29 01:36:04;;;;;;;;;;;;;;;;;;4995343;28;19944;-57
2022/04/29 01:38:30;;;;;;;;;;;;;;;;;;4991375;28;19925;-59
2022/04/29 01:40:56;;;;;;;;;;;;;;;;;;4995252;28;19932;-57
2022/04/29 01:43:23;;;;;;;;;;;;;;;;;;4995679;28;19932;-56
2022/04/29 01:45:49;;;;;;;;;;;;;;;;;;4991407;28;19927;-63
2022/04/29 01:48:16;;;;;;;;;;;;;;;;;;4995160;28;19921;-57
2022/04/29 01:50:42;;;;;;;;;;;;;;;;;;4990881;28;20020;-57
2022/04/29 01:53:08;;;;;;;;;;;;;;;;;;4995087;28;19972;-57
2022/04/29 01:55:35;;;;;;;;;;;;;;;;;;4990858;28;19921;-57
2022/04/29 01:58:01;;;;;;;;;;;;;;;;;;4994492;28;19978;-57
2022/04/29 02:00:28;;;;;;;;;;;;;;;;;;4990478;28;19921;-57
2022/04/29 02:02:59;;;;;;;;;;;;;;;;;;4989613;28;19925;-57
2022/04/29 02:05:25;;;;;;;;;;;;;;;;;;4983180;28;19925;-57
2022/04/29 02:07:52;;;;;;;;;;;;;;;;;;4991610;28;19936;-59
2022/04/29 02:10:18;;;;;;;;;;;;;;;;;;4983315;28;19933;-59
2022/04/29 02:12:46;;;;;;;;;;;;;;;;;;4989579;28;19937;-57
2022/04/29 02:15:13;;;;;;;;;;;;;;;;;;4972965;28;19926;-58
2022/04/29 02:17:39;;;;;;;;;;;;;;;;;;4971490;28;19926;-57
2022/04/29 02:20:05;;;;;;;;;;;;;;;;;;4960136;28;19929;-57
2022/04/29 02:22:32;;;;;;;;;;;;;;;;;;4973211;28;19964;-59
2022/04/29 02:24:58;;;;;;;;;;;;;;;;;;4971556;28;19932;-58
2022/04/29 02:27:27;;;;;;;;;;;;;;;;;;4967748;28;19932;-57
2022/04/29 02:29:53;;;;;;;;;;;;;;;;;;4968521;28;19965;-58
2022/04/29 02:32:21;;;;;;;;;;;;;;;;;;4973249;28;19921;-57
2022/04/29 02:34:47;;;;;;;;;;;;;;;;;;4972026;28;20016;-56
2022/04/29 02:37:13;;;;;;;;;;;;;;;;;;4971782;28;19969;-57
2022/04/29 02:39:40;;;;;;;;;;;;;;;;;;4970994;28;19921;-57
2022/04/29 02:42:07;;;;;;;;;;;;;;;;;;4967039;28;19965;-57
2022/04/29 02:44:33;;;;;;;;;;;;;;;;;;4969762;28;19936;-57
2022/04/29 02:47:08;;;;;;;;;;;;;;;;;;4968025;28;19922;-57
2022/04/29 02:49:38;;;;;;;;;;;;;;;;;;4986591;28;20024;-57
2022/04/29 02:52:05;;;;;;;;;;;;;;;;;;4968311;28;19961;-60
2022/04/29 02:54:31;;;;;;;;;;;;;;;;;;4971792;28;19932;-57
2022/04/29 02:56:58;;;;;;;;;;;;;;;;;;4963795;28;19925;-57
2022/04/29 02:59:24;;;;;;;;;;;;;;;;;;4971924;28;19926;-57
2022/04/29 03:01:50;;;;;;;;;;;;;;;;;;4953203;28;19926;-60
2022/04/29 03:04:17;;;;;;;;;;;;;;;;;;4956215;28;19932;-57
2022/04/29 03:06:43;;;;;;;;;;;;;;;;;;4974511;28;19930;-56
2022/04/29 03:09:10;;;;;;;;;;;;;;;;;;4964027;28;19928;-57
2022/04/29 03:11:36;;;;;;;;;;;;;;;;;;4972371;28;19964;-57
2022/04/29 03:14:03;;;;;;;;;;;;;;;;;;4963794;28;20024;-57
2022/04/29 03:16:29;;;;;;;;;;;;;;;;;;4972787;28;19925;-56
2022/04/29 03:18:56;;;;;;;;;;;;;;;;;;4970914;28;19926;-57
2022/04/29 03:21:22;;;;;;;;;;;;;;;;;;4984944;28;19930;-54
2022/04/29 03:23:49;;;;;;;;;;;;;;;;;;4963834;28;19972;-57
2022/04/29 03:26:15;;;;;;;;;;;;;;;;;;4973127;28;19925;-59
2022/04/29 03:28:42;;;;;;;;;;;;;;;;;;4975205;28;19961;-55
2022/04/29 03:31:08;;;;;;;;;;;;;;;;;;4965846;28;19926;-56
2022/04/29 03:33:35;;;;;;;;;;;;;;;;;;4967977;28;19972;-57
2022/04/29 03:36:01;;;;;;;;;;;;;;;;;;4979988;28;19941;-57
2022/04/29 03:38:28;;;;;;;;;;;;;;;;;;4970430;28;19961;-59
2022/04/29 03:40:54;;;;;;;;;;;;;;;;;;4971017;28;19929;-57
2022/04/29 03:43:24;;;;;;;;;;;;;;;;;;4971568;28;19926;-58
2022/04/29 03:45:51;;;;;;;;;;;;;;;;;;4966125;28;19926;-57
2022/04/29 03:48:17;;;;;;;;;;;;;;;;;;4971083;28;19933;-58
2022/04/29 03:50:44;;;;;;;;;;;;;;;;;;4966146;28;19937;-57
2022/04/29 03:53:11;;;;;;;;;;;;;;;;;;4968549;28;19929;-57
2022/04/29 03:55:38;;;;;;;;;;;;;;;;;;4964467;28;19949;-55
2022/04/29 03:58:04;;;;;;;;;;;;;;;;;;4966164;28;20001;-57
2022/04/29 04:00:32;;;;;;;;;;;;;;;;;;4961540;28;20064;-57
2022/04/29 04:02:59;;;;;;;;;;;;;;;;;;4963735;28;19942;-55
2022/04/29 04:05:25;;;;;;;;;;;;;;;;;;4964172;28;19922;-54
2022/04/29 04:07:51;;;;;;;;;;;;;;;;;;4981114;28;19925;-56
2022/04/29 04:10:18;;;;;;;;;;;;;;;;;;4985253;28;19929;-56
2022/04/29 04:12:46;;;;;;;;;;;;;;;;;;4964345;28;19933;-55
2022/04/29 04:15:12;;;;;;;;;;;;;;;;;;4972279;28;19922;-58
2022/04/29 04:17:39;;;;;;;;;;;;;;;;;;4975420;28;19925;-55
2022/04/29 04:20:05;;;;;;;;;;;;;;;;;;4984618;28;19926;-54
2022/04/29 04:22:35;;;;;;;;;;;;;;;;;;4967166;28;19930;-60
2022/04/29 04:25:01;;;;;;;;;;;;;;;;;;4967269;28;19929;-58
2022/04/29 04:27:27;;;;;;;;;;;;;;;;;;4977149;28;19925;-59
2022/04/29 04:29:54;;;;;;;;;;;;;;;;;;4957201;28;19937;-54
2022/04/29 04:32:21;;;;;;;;;;;;;;;;;;4980194;28;19926;-57
2022/04/29 04:34:51;;;;;;;;;;;;;;;;;;4965274;28;19921;-58
2022/04/29 04:37:17;;;;;;;;;;;;;;;;;;4977716;28;19926;-55
2022/04/29 04:39:44;;;;;;;;;;;;;;;;;;4964575;28;19930;-55
2022/04/29 04:42:11;;;;;;;;;;;;;;;;;;4967631;28;19929;-55
2022/04/29 04:44:38;;;;;;;;;;;;;;;;;;4967889;28;19928;-58
2022/04/29 04:47:05;;;;;;;;;;;;;;;;;;4965420;28;19929;-54
2022/04/29 04:49:31;;;;;;;;;;;;;;;;;;4974782;28;19972;-55
2022/04/29 04:51:58;;;;;;;;;;;;;;;;;;4958641;28;20011;-56
2022/04/29 04:54:24;;;;;;;;;;;;;;;;;;4968998;28;19930;-58
2022/04/29 04:56:50;;;;;;;;;;;;;;;;;;4965785;28;19925;-55
2022/04/29 04:59:17;;;;;;;;;;;;;;;;;;4961563;28;19996;-55
2022/04/29 05:01:43;;;;;;;;;;;;;;;;;;4976249;28;19937;-59
2022/04/29 05:04:09;;;;;;;;;;;;;;;;;;4955102;28;19925;-56
2022/04/29 05:06:37;;;;;;;;;;;;;;;;;;4980811;28;19976;-55
2022/04/29 05:09:03;;;;;;;;;;;;;;;;;;4959236;28;20021;-57
2022/04/29 05:11:29;;;;;;;;;;;;;;;;;;4961101;28;19956;-57
2022/04/29 05:13:56;;;;;;;;;;;;;;;;;;4964353;28;19925;-57
2022/04/29 05:16:22;;;;;;;;;;;;;;;;;;4960677;28;19939;-57
2022/04/29 05:18:49;;;;;;;;;;;;;;;;;;4971518;28;19941;-57
2022/04/29 05:21:16;;;;;;;;;;;;;;;;;;4962343;28;19922;-59
2022/04/29 05:23:42;;;;;;;;;;;;;;;;;;4971002;28;19925;-59
2022/04/29 05:26:09;;;;;;;;;;;;;;;;;;4962863;28;19937;-57
2022/04/29 05:28:35;;;;;;;;;;;;;;;;;;4968554;28;19925;-56
2022/04/29 05:31:01;;;;;;;;;;;;;;;;;;4970032;28;19933;-57
2022/04/29 05:33:28;;;;;;;;;;;;;;;;;;4961372;28;20072;-57
2022/04/29 05:35:54;;;;;;;;;;;;;;;;;;4971025;28;19929;-58
2022/04/29 05:38:21;;;;;;;;;;;;;;;;;;4959953;28;19969;-59
2022/04/29 05:43:32;;;;;;;;;;;;;;;;;;4962377;28;20020;-57
2022/04/29 05:45:58;;;;;;;;;;;;;;;;;;4969036;28;19965;-58
2022/04/29 05:48:24;;;;;;;;;;;;;;;;;;4971224;28;19930;-57
2022/04/29 05:50:51;;;;;;;;;;;;;;;;;;4961834;28;19926;-57
2022/04/29 05:53:17;;;;;;;;;;;;;;;;;;4970520;28;19925;-55
2022/04/29 05:55:43;;;;;;;;;;;;;;;;;;4961990;28;19929;-59
2022/04/29 05:58:10;;;;;;;;;;;;;;;;;;4971412;28;19943;-57
2022/04/29 06:00:36;;;;;;;;;;;;;;;;;;4965531;28;19926;-57
2022/04/29 06:03:03;;;;;;;;;;;;;;;;;;4967701;28;19932;-57
2022/04/29 06:05:29;;;;;;;;;;;;;;;;;;4972722;28;19925;-57
2022/04/29 06:07:56;;;;;;;;;;;;;;;;;;4968375;28;19953;-56
2022/04/29 06:10:22;;;;;;;;;;;;;;;;;;4974753;28;19948;-54
2022/04/29 06:12:49;;;;;;;;;;;;;;;;;;4966285;28;19951;-53
2022/04/29 06:15:16;;;;;;;;;;;;;;;;;;4974492;28;19929;-54
2022/04/29 06:17:43;;;;;;;;;;;;;;;;;;4968849;28;19934;-59
2022/04/29 06:20:09;;;;;;;;;;;;;;;;;;4973720;28;19928;-56
2022/04/29 06:22:35;;;;;;;;;;;;;;;;;;4974906;28;19926;-55
2022/04/29 06:25:02;;;;;;;;;;;;;;;;;;4981017;28;19928;-57
2022/04/29 06:27:28;;;;;;;;;;;;;;;;;;4974653;28;20006;-52
2022/04/29 06:29:55;;;;;;;;;;;;;;;;;;4979994;28;19925;-58
2022/04/29 06:32:21;;;;;;;;;;;;;;;;;;4974490;28;19933;-56
2022/04/29 06:34:49;;;;;;;;;;;;;;;;;;4969926;28;19941;-55
2022/04/29 06:37:16;;;;;;;;;;;;;;;;;;4972295;28;19930;-55
2022/04/29 06:39:42;;;;;;;;;;;;;;;;;;4973918;28;19926;-57
2022/04/29 06:42:09;;;;;;;;;;;;;;;;;;4967721;28;19992;-57
2022/04/29 06:44:35;;;;;;;;;;;;;;;;;;4973854;28;19944;-58
2022/04/29 06:47:02;;;;;;;;;;;;;;;;;;4967085;28;19972;-56
2022/04/29 06:49:28;;;;;;;;;;;;;;;;;;4974299;28;19925;-55
2022/04/29 06:51:57;;;;;;;;;;;;;;;;;;4971985;28;19925;-59
2022/04/29 06:54:23;;;;;;;;;;;;;;;;;;4986591;28;19925;-59
2022/04/29 06:56:49;;;;;;;;;;;;;;;;;;4974387;28;20012;-60
2022/04/29 06:59:16;;;;;;;;;;;;;;;;;;4966422;28;19933;-60
2022/04/29 07:01:42;;;;;;;;;;;;;;;;;;4990416;28;20001;-54
2022/04/29 07:04:08;;;;;;;;;;;;;;;;;;4981156;28;20003;-57
2022/04/29 07:06:35;;;;;;;;;;;;;;;;;;4974241;28;19930;-60
2022/04/29 07:09:02;;;;;;;;;;;;;;;;;;4973818;28;19922;-59
2022/04/29 07:11:29;;;;;;;;;;;;;;;;;;4967431;28;19948;-57
2022/04/29 07:13:56;;;;;;;;;;;;;;;;;;4972980;28;20013;-55
2022/04/29 07:16:23;;;;;;;;;;;;;;;;;;4966104;28;19929;-55
2022/04/29 07:18:49;;;;;;;;;;;;;;;;;;4974203;28;19928;-57
2022/04/29 07:21:15;;;;;;;;;;;;;;;;;;4969636;28;19926;-56
2022/04/29 07:23:42;;;;;;;;;;;;;;;;;;4973404;28;20004;-56
2022/04/29 07:26:08;;;;;;;;;;;;;;;;;;4969911;28;19949;-57
2022/04/29 07:28:34;;;;;;;;;;;;;;;;;;4973299;28;19928;-58
2022/04/29 07:31:01;;;;;;;;;;;;;;;;;;4973505;28;19925;-57
2022/04/29 07:33:28;;;;;;;;;;;;;;;;;;4969195;28;19988;-56
2022/04/29 07:44:07;;;;;;;;;;;;;;;;;;4970002;28;19951;-56
2022/04/29 07:46:33;;;;;;;;;;;;;;;;;;4973226;28;20011;-57
2022/04/29 07:49:00;;;;;;;;;;;;;;;;;;4969149;28;19922;-57
2022/04/29 07:51:27;;;;;;;;;;;;;;;;;;4973603;28;19922;-56
2022/04/29 07:53:53;;;;;;;;;;;;;;;;;;4968662;28;19926;-57
2022/04/29 07:56:20;;;;;;;;;;;;;;;;;;4973143;28;19929;-57
2022/04/29 07:58:46;;;;;;;;;;;;;;;;;;4968593;28;19925;-56
2022/04/29 08:01:12;;;;;;;;;;;;;;;;;;4973199;28;20021;-55
2022/04/29 08:03:39;;;;;;;;;;;;;;;;;;4968803;28;19925;-58
2022/04/29 08:06:05;;;;;;;;;;;;;;;;;;4972227;28;20012;-56
2022/04/29 08:08:31;;;;;;;;;;;;;;;;;;4968867;28;19925;-55
2022/04/29 08:10:58;;;;;;;;;;;;;;;;;;4972616;28;19972;-57
2022/04/29 08:13:25;;;;;;;;;;;;;;;;;;4982870;28;19928;-59
2022/04/29 08:15:51;;;;;;;;;;;;;;;;;;4991160;28;19954;-56
2022/04/29 08:18:18;;;;;;;;;;;;;;;;;;4988249;28;19933;-59
2022/04/29 08:20:45;;;;;;;;;;;;;;;;;;4992121;28;19925;-57
2022/04/29 08:23:11;;;;;;;;;;;;;;;;;;4988862;28;19925;-57
2022/04/29 08:25:38;;;;;;;;;;;;;;;;;;4990924;28;19976;-57
2022/04/29 08:28:04;;;;;;;;;;;;;;;;;;4991561;28;19921;-59
2022/04/29 08:30:31;;;;;;;;;;;;;;;;;;4987595;28;19925;-60
2022/04/29 08:32:57;;;;;;;;;;;;;;;;;;4991907;28;20012;-57
2022/04/29 08:35:24;;;;;;;;;;;;;;;;;;4987849;28;19925;-59
2022/04/29 08:37:50;;;;;;;;;;;;;;;;;;4991600;28;19991;-59
2022/04/29 08:40:17;;;;;;;;;;;;;;;;;;4987308;28;19921;-59
2022/04/29 08:42:44;;;;;;;;;;;;;;;;;;4991239;28;19933;-57
2022/04/29 08:45:10;;;;;;;;;;;;;;;;;;4987536;28;19926;-57
2022/04/29 08:47:38;;;;;;;;;;;;;;;;;;4991639;28;19921;-58
2022/04/29 08:50:04;;;;;;;;;;;;;;;;;;4987848;28;19927;-56
2022/04/29 08:52:31;;;;;;;;;;;;;;;;;;4991688;28;19928;-58
2022/04/29 09:00:25;;;;;;;;;;;;;;;;;;4987411;28;19932;-57
2022/04/29 09:02:52;;;;;;;;;;;;;;;;;;4990047;28;19925;-57
2022/04/29 09:05:18;;;;;;;;;;;;;;;;;;4983049;28;19932;-57
2022/04/29 09:07:45;;;;;;;;;;;;;;;;;;4991768;28;19999;-57
2022/04/29 09:10:11;;;;;;;;;;;;;;;;;;4988893;28;19925;-57
2022/04/29 09:12:39;;;;;;;;;;;;;;;;;;4988540;28;19933;-58
2022/04/29 09:15:06;;;;;;;;;;;;;;;;;;4978690;28;20024;-60
2022/04/29 09:17:32;;;;;;;;;;;;;;;;;;4963307;28;19936;-61
2022/04/29 09:19:58;;;;;;;;;;;;;;;;;;4971194;28;19985;-58
2022/04/29 09:22:30;;;;;;;;;;;;;;;;;;4964029;28;19937;-60
2022/04/29 09:24:56;;;;;;;;;;;;;;;;;;4972341;28;19960;-58
2022/04/29 09:27:23;;;;;;;;;;;;;;;;;;4969454;28;19932;-58
2022/04/29 09:29:49;;;;;;;;;;;;;;;;;;4967282;28;19922;-61
2022/04/29 09:32:16;;;;;;;;;;;;;;;;;;4972157;28;19928;-60
2022/04/29 09:34:43;;;;;;;;;;;;;;;;;;4964629;28;19933;-58
2022/04/29 09:37:10;;;;;;;;;;;;;;;;;;4987178;28;19925;-58
2022/04/29 09:39:36;;;;;;;;;;;;;;;;;;4977289;28;19948;-61
2022/04/29 09:42:02;;;;;;;;;;;;;;;;;;4974709;28;19992;-61
2022/04/29 09:44:28;;;;;;;;;;;;;;;;;;4975989;28;19926;-57
2022/04/29 09:46:55;;;;;;;;;;;;;;;;;;4968584;28;19948;-57
2022/04/29 09:49:22;;;;;;;;;;;;;;;;;;4991261;28;19922;-58
2022/04/29 09:51:49;;;;;;;;;;;;;;;;;;4968469;28;20028;-58
2022/04/29 09:54:16;;;;;;;;;;;;;;;;;;4990339;28;19926;-57
2022/04/29 09:56:43;;;;;;;;;;;;;;;;;;4968722;28;19996;-60
2022/04/29 09:59:09;;;;;;;;;;;;;;;;;;4974016;28;19925;-57
2022/04/29 10:01:35;;;;;;;;;;;;;;;;;;4975137;28;19940;-59
2022/04/29 10:04:02;;;;;;;;;;;;;;;;;;4981537;28;19926;-60
2022/04/29 10:06:28;;;;;;;;;;;;;;;;;;4991610;28;19985;-59
2022/04/29 10:08:55;;;;;;;;;;;;;;;;;;4981777;28;19929;-57
2022/04/29 10:11:22;;;;;;;;;;;;;;;;;;4987899;28;19922;-57
2022/04/29 10:13:48;;;;;;;;;;;;;;;;;;4971545;28;19939;-57
2022/04/29 10:16:15;;;;;;;;;;;;;;;;;;4991753;28;19928;-57
2022/04/29 10:21:26;;;;;;;;;;;;;;;;;;4990294;28;19932;-57
2022/04/29 10:23:52;;;;;;;;;;;;;;;;;;4993954;28;19925;-58
2022/04/29 10:26:18;;;;;;;;;;;;;;;;;;4989988;28;19983;-59
2022/04/29 10:28:45;;;;;;;;;;;;;;;;;;4994139;28;19922;-61
2022/04/29 10:31:11;;;;;;;;;;;;;;;;;;4989943;28;19926;-60
2022/04/29 10:33:37;;;;;;;;;;;;;;;;;;4993637;28;19971;-58
2022/04/29 10:36:04;;;;;;;;;;;;;;;;;;4990031;28;19925;-58
2022/04/29 10:38:31;;;;;;;;;;;;;;;;;;4993810;28;19932;-59
2022/04/29 10:40:58;;;;;;;;;;;;;;;;;;4989376;28;20011;-57
2022/04/29 10:43:25;;;;;;;;;;;;;;;;;;4994259;28;19956;-60
2022/04/29 10:45:52;;;;;;;;;;;;;;;;;;4990293;28;19921;-61
2022/04/29 10:48:18;;;;;;;;;;;;;;;;;;4995177;28;19928;-59
2022/04/29 10:50:44;;;;;;;;;;;;;;;;;;4991611;28;19937;-57
2022/04/29 10:53:12;;;;;;;;;;;;;;;;;;4993030;28;19925;-58
2022/04/29 10:55:39;;;;;;;;;;;;;;;;;;4994237;28;19928;-59
2022/04/29 10:58:05;;;;;;;;;;;;;;;;;;4990718;28;19921;-57
2022/04/29 11:00:33;;;;;;;;;;;;;;;;;;4993206;28;20011;-58
2022/04/29 11:03:02;;;;;;;;;;;;;;;;;;4989576;28;19932;-58
2022/04/29 11:05:28;;;;;;;;;;;;;;;;;;4993769;28;19944;-57
2022/04/29 11:07:55;;;;;;;;;;;;;;;;;;4988999;28;19925;-57
2022/04/29 11:10:21;;;;;;;;;;;;;;;;;;4997080;28;19945;-58
2022/04/29 11:12:48;;;;;;;;;;;;;;;;;;4996169;28;19933;-57
2022/04/29 11:15:15;;;;;;;;;;;;;;;;;;4981510;28;19944;-58
2022/04/29 11:17:41;;;;;;;;;;;;;;;;;;4969944;28;19976;-58
2022/04/29 11:20:07;;;;;;;;;;;;;;;;;;4973531;28;19925;-59
2022/04/29 11:25:29;;;;;;;;;;;;;;;;;;4933995;29;19922;-57
2022/04/29 11:27:55;;;;;;;;;;;;;;;;;;4960304;28;19933;-58
2022/04/29 11:30:22;;;;;;;;;;;;;;;;;;4973560;28;19925;-58
2022/04/29 11:32:51;;;;;;;;;;;;;;;;;;4969500;28;19932;-60
2022/04/29 11:35:18;;;;;;;;;;;;;;;;;;4972381;28;19928;-60
2022/04/29 11:37:46;;;;;;;;;;;;;;;;;;4969145;28;19930;-61
2022/04/29 11:40:12;;;;;;;;;;;;;;;;;;4972696;28;19997;-60
2022/04/29 11:42:39;;;;;;;;;;;;;;;;;;4968850;28;19980;-59
2022/04/29 11:45:05;;;;;;;;;;;;;;;;;;4973412;28;19926;-60
2022/04/29 11:47:31;;;;;;;;;;;;;;;;;;4972222;28;19928;-60
2022/04/29 11:49:58;;;;;;;;;;;;;;;;;;4969717;28;19980;-59
2022/04/29 11:52:24;;;;;;;;;;;;;;;;;;4972750;28;19932;-59
2022/04/29 11:54:50;;;;;;;;;;;;;;;;;;4968794;28;19984;-60
2022/04/29 11:57:17;;;;;;;;;;;;;;;;;;4972375;28;19925;-60
2022/04/29 11:59:43;;;;;;;;;;;;;;;;;;4968437;28;20028;-61
2022/04/29 12:02:10;;;;;;;;;;;;;;;;;;4972647;28;19926;-60
2022/04/29 12:04:36;;;;;;;;;;;;;;;;;;4967838;28;20023;-60
2022/04/29 12:07:03;;;;;;;;;;;;;;;;;;4972793;28;19921;-60
2022/04/29 12:09:29;;;;;;;;;;;;;;;;;;4969129;28;19922;-60
2022/04/29 12:11:56;;;;;;;;;;;;;;;;;;4988407;28;19925;-60
2022/04/29 12:14:22;;;;;;;;;;;;;;;;;;4982219;28;19926;-62
2022/04/29 12:16:48;;;;;;;;;;;;;;;;;;4973008;28;19996;-60
2022/04/29 12:19:15;;;;;;;;;;;;;;;;;;4967052;28;19930;-61
2022/04/29 12:21:41;;;;;;;;;;;;;;;;;;4972867;28;19925;-64
2022/04/29 12:24:07;;;;;;;;;;;;;;;;;;4970655;28;19937;-63
2022/04/29 12:26:34;;;;;;;;;;;;;;;;;;4971022;28;19925;-63
2022/04/29 12:29:00;;;;;;;;;;;;;;;;;;4972543;28;19925;-59
2022/04/29 12:36:54;;;;;;;;;;;;;;;;;;4968789;28;19929;-56
2022/04/29 12:39:24;;;;;;;;;;;;;;;;;;4972319;28;20008;-57
2022/04/29 12:41:50;;;;;;;;;;;;;;;;;;4968535;28;19925;-58
2022/04/29 12:45:03;;;;;;;;;;;;;;;;;;4972635;28;19926;-58
2022/04/29 12:47:03;;;;;;;;;;;;;;;;;;4968159;28;19931;-57
2022/04/29 12:49:30;;;;;;;;;;;;;;;;;;4988247;28;19922;-58
2022/04/29 12:51:57;;;;;;;;;;;;;;;;;;4967678;28;19928;-58
2022/04/29 12:54:24;;;;;;;;;;;;;;;;;;4972151;28;19961;-57
2022/04/29 12:56:51;;;;;;;;;;;;;;;;;;4967300;28;19925;-58
2022/04/29 12:59:18;;;;;;;;;;;;;;;;;;4972019;28;19925;-57
2022/04/29 13:01:46;;;;;;;;;;;;;;;;;;4968243;28;19936;-61
2022/04/29 13:04:12;;;;;;;;;;;;;;;;;;4967350;28;19926;-61
2022/04/29 13:06:39;;;;;;;;;;;;;;;;;;4962869;28;19981;-60
2022/04/29 13:09:05;;;;;;;;;;;;;;;;;;4970672;28;19930;-62
2022/04/29 13:11:32;;;;;;;;;;;;;;;;;;4976901;28;19964;-61
2022/04/29 13:13:58;;;;;;;;;;;;;;;;;;4972950;28;19925;-62
2022/04/29 13:16:25;;;;;;;;;;;;;;;;;;4994914;28;19925;-60
2022/04/29 13:18:51;;;;;;;;;;;;;;;;;;4987744;28;19921;-59
2022/04/29 13:21:17;;;;;;;;;;;;;;;;;;4995220;28;19925;-60
2022/04/29 13:23:44;;;;;;;;;;;;;;;;;;4987671;28;20123;-63
2022/04/29 13:26:11;;;;;;;;;;;;;;;;;;4995278;28;19968;-61
2022/04/29 13:28:38;;;;;;;;;;;;;;;;;;4989515;28;20051;-59
2022/04/29 13:31:05;;;;;;;;;;;;;;;;;;4992118;28;19925;-60
2022/04/29 13:33:32;;;;;;;;;;;;;;;;;;4994698;28;19932;-60
2022/04/29 13:35:58;;;;;;;;;;;;;;;;;;4988515;28;19925;-61
2022/04/29 13:38:24;;;;;;;;;;;;;;;;;;4995169;28;19925;-60
2022/04/29 13:40:51;;;;;;;;;;;;;;;;;;4986916;28;19933;-61
2022/04/29 13:43:20;;;;;;;;;;;;;;;;;;4994446;28;19929;-60
2022/04/29 13:45:46;;;;;;;;;;;;;;;;;;4991105;28;19980;-59
2022/04/29 13:48:14;;;;;;;;;;;;;;;;;;4991214;28;20027;-61
2022/04/29 13:50:40;;;;;;;;;;;;;;;;;;4994244;28;19925;-61
2022/04/29 13:53:11;;;;;;;;;;;;;;;;;;4987618;28;19925;-59
2022/04/29 13:55:38;;;;;;;;;;;;;;;;;;4995043;28;19925;-63
2022/04/29 13:58:04;;;;;;;;;;;;;;;;;;4987113;28;19929;-63
2022/04/29 14:00:30;;;;;;;;;;;;;;;;;;4994499;28;19932;-62
2022/04/29 14:02:57;;;;;;;;;;;;;;;;;;4991620;28;19925;-62
2022/04/29 14:05:24;;;;;;;;;;;;;;;;;;4988964;28;19921;-64
2022/04/29 14:07:51;;;;;;;;;;;;;;;;;;4994433;28;19964;-63
2022/04/29 14:10:17;;;;;;;;;;;;;;;;;;4987104;28;19932;-61
2022/04/29 14:12:44;;;;;;;;;;;;;;;;;;5012266;28;19921;-60
2022/04/29 14:15:10;;;;;;;;;;;;;;;;;;4976160;28;19929;-61
2022/04/29 14:17:36;;;;;;;;;;;;;;;;;;4974469;28;19932;-60
2022/04/29 14:20:03;;;;;;;;;;;;;;;;;;4973945;28;19926;-63
2022/04/29 14:22:29;;;;;;;;;;;;;;;;;;4970652;28;19930;-62
2022/04/29 14:24:56;;;;;;;;;;;;;;;;;;4972791;28;20020;-60
2022/04/29 14:27:24;;;;;;;;;;;;;;;;;;4969691;28;20020;-60
2022/04/29 14:29:50;;;;;;;;;;;;;;;;;;4974499;28;19922;-61
2022/04/29 14:32:19;;;;;;;;;;;;;;;;;;4970542;28;19928;-61
2022/04/29 14:34:48;;;;;;;;;;;;;;;;;;4974466;28;19932;-61
2022/04/29 14:37:14;;;;;;;;;;;;;;;;;;4970255;28;19921;-61
2022/04/29 14:39:41;;;;;;;;;;;;;;;;;;4974056;28;19922;-60
2022/04/29 14:42:10;;;;;;;;;;;;;;;;;;4970129;28;20020;-62
2022/04/29 14:44:36;;;;;;;;;;;;;;;;;;4974997;28;19925;-61
2022/04/29 14:47:03;;;;;;;;;;;;;;;;;;4970503;28;19932;-61
2022/04/29 14:49:29;;;;;;;;;;;;;;;;;;4974173;28;19933;-61
2022/04/29 14:51:55;;;;;;;;;;;;;;;;;;4970163;28;19930;-60
2022/04/29 14:54:21;;;;;;;;;;;;;;;;;;4974000;28;19932;-62
2022/04/29 14:56:48;;;;;;;;;;;;;;;;;;4970101;28;19933;-60
2022/04/29 14:59:14;;;;;;;;;;;;;;;;;;4973492;28;19957;-62
2022/04/29 15:04:09;;;;;;;;;;;;;;;;;;4970069;28;19948;-62
2022/04/29 15:06:36;;;;;;;;;;;;;;;;;;4974345;28;19933;-64
2022/04/29 15:17:14;;;;;;;;;;;;;;;;;;4973433;28;19921;-61
2022/04/29 15:19:41;;;;;;;;;;;;;;;;;;4969722;28;19972;-63
2022/04/29 15:22:10;;;;;;;;;;;;;;;;;;4971118;28;19969;-59
2022/04/29 15:24:36;;;;;;;;;;;;;;;;;;4975570;28;19933;-63
2022/04/29 15:27:03;;;;;;;;;;;;;;;;;;4977822;28;19925;-61
2022/04/29 15:29:29;;;;;;;;;;;;;;;;;;4964775;28;20040;-60
2022/04/29 15:31:56;;;;;;;;;;;;;;;;;;4962146;28;20012;-60
2022/04/29 15:34:23;;;;;;;;;;;;;;;;;;4971456;28;19922;-62
2022/04/29 15:36:49;;;;;;;;;;;;;;;;;;4978643;28;19925;-64
2022/04/29 15:39:15;;;;;;;;;;;;;;;;;;4983867;28;19949;-62
2022/04/29 15:41:43;;;;;;;;;;;;;;;;;;4967437;28;19926;-63
2022/04/29 15:44:09;;;;;;;;;;;;;;;;;;4968772;28;19930;-64
2022/04/29 15:46:35;;;;;;;;;;;;;;;;;;4971337;28;19925;-62
2022/04/29 15:49:02;;;;;;;;;;;;;;;;;;4958892;28;19933;-60
2022/04/29 15:51:28;;;;;;;;;;;;;;;;;;4968973;28;19932;-63
2022/04/29 15:53:54;;;;;;;;;;;;;;;;;;4967158;28;19929;-62
2022/04/29 15:56:22;;;;;;;;;;;;;;;;;;4969924;28;19929;-60
2022/04/29 15:58:48;;;;;;;;;;;;;;;;;;4968747;28;19926;-61
2022/04/29 16:01:15;;;;;;;;;;;;;;;;;;4965140;28;19941;-62
2022/04/29 16:03:41;;;;;;;;;;;;;;;;;;4981824;28;19926;-60
2022/04/29 16:06:08;;;;;;;;;;;;;;;;;;4973465;28;19932;-61
2022/04/29 16:08:34;;;;;;;;;;;;;;;;;;4971481;28;19932;-60
2022/04/29 16:11:01;;;;;;;;;;;;;;;;;;4961992;28;20152;-60
2022/04/29 16:13:28;;;;;;;;;;;;;;;;;;4969766;28;20028;-61
2022/04/29 16:15:54;;;;;;;;;;;;;;;;;;4964696;28;19925;-59
2022/04/29 16:21:05;;;;;;;;;;;;;;;;;;4963851;28;19932;-60
2022/04/29 16:26:15;;;;;;;;;;;;;;;;;;4961873;28;19972;-60
2022/04/29 16:28:42;;;;;;;;;;;;;;;;;;4969048;28;19933;-60
2022/04/29 16:31:09;;;;;;;;;;;;;;;;;;4966434;28;19921;-62
2022/04/29 16:33:38;;;;;;;;;;;;;;;;;;4979421;28;19948;-60
2022/04/29 16:36:05;;;;;;;;;;;;;;;;;;4961472;28;19926;-60
2022/04/29 16:38:35;;;;;;;;;;;;;;;;;;4968015;28;19980;-60
2022/04/29 16:41:02;;;;;;;;;;;;;;;;;;4972413;28;19929;-61
2022/04/29 16:43:28;;;;;;;;;;;;;;;;;;4975178;28;19925;-63
2022/04/29 16:45:55;;;;;;;;;;;;;;;;;;4988088;28;19929;-61
2022/04/29 16:48:22;;;;;;;;;;;;;;;;;;4969223;28;19933;-64
2022/04/29 16:50:48;;;;;;;;;;;;;;;;;;4965972;28;19925;-62
2022/04/29 16:53:15;;;;;;;;;;;;;;;;;;4963822;28;19929;-60
2022/04/29 16:55:41;;;;;;;;;;;;;;;;;;4958753;28;19942;-60
2022/04/29 17:00:52;;;;;;;;;;;;;;;;;;4969960;28;20005;-59
2022/04/29 17:03:21;;;;;;;;;;;;;;;;;;4970749;28;19925;-58
2022/04/29 17:05:47;;;;;;;;;;;;;;;;;;4969752;28;19980;-62
2022/04/29 17:08:13;;;;;;;;;;;;;;;;;;4963094;28;19929;-59
2022/04/29 17:10:40;;;;;;;;;;;;;;;;;;4967163;28;19925;-60
2022/04/29 17:13:06;;;;;;;;;;;;;;;;;;4953498;28;19930;-60
2022/04/29 17:15:33;;;;;;;;;;;;;;;;;;4970576;28;19972;-59
2022/04/29 17:18:00;;;;;;;;;;;;;;;;;;4964668;28;19925;-60
2022/04/29 17:20:27;;;;;;;;;;;;;;;;;;4966066;28;19934;-58
2022/04/29 17:22:53;;;;;;;;;;;;;;;;;;4969026;28;19925;-59
2022/04/29 17:25:20;;;;;;;;;;;;;;;;;;4961924;28;19933;-61
2022/04/29 17:27:46;;;;;;;;;;;;;;;;;;4969157;28;19926;-59